• Join FlightAware (Why Join?)
  • Login
  • US Flag 
03:49AM EST


 

Airport Tracker/Info


-or-


 

Live Flight TrackerFlight Track Log ✈ SWA325 ✈ 16-Jun-2013 ✈ KPHX - KLIT

Flight Track Log - Related Links

Times and Time Zones

All times are in EDT time to prevent confusion due to time zone crossing. See the SWA325 flight status page for this flight to view local times or setup timezone preferences in your user account.

Time Position Orientation Groundspeed Altitude Reporting Facility
EDT Latitude Longitude Course Direction KTS MPH feet Rate Location/Type
01:58PM 33.4333 -112.0333 248° West 192 221 1,900  Level Phoenix TRACON
01:59PM 33.4167 -112.0833 248° West 200 230 3,300 1,980 Climbing Phoenix TRACON
02:00PM 33.4069 -112.1267 255° West 211 243 5,000 2,280 Climbing Albuquerque Center
02:01PM 33.3728 -112.1758 230° Southwest 223 257 7,300 1,920 Climbing Albuquerque Center
02:02PM 33.3092 -112.1342 151° Southeast 262 302 9,000 1,800 Climbing Albuquerque Center
02:03PM 33.3150 -112.0183 87° East 323 372 11,100 2,220 Climbing Albuquerque Center
02:04PM 33.3472 -111.9086 71° East 351 404 13,700 2,580 Climbing Albuquerque Center
02:05PM 33.3811 -111.7939 70° East 367 422 16,500 2,460 Climbing Albuquerque Center
02:06PM 33.4175 -111.6719 70° East 387 445 18,800 2,220 Climbing Albuquerque Center
02:07PM 33.4542 -111.5442 71° East 407 468 21,200 2,340 Climbing Albuquerque Center
02:08PM 33.4997 -111.3850 71° East 424 488 23,700 2,160 Climbing Albuquerque Center
02:09PM 33.5172 -111.2394 82° East 443 510 25,700 1,680 Climbing Albuquerque Center
02:10PM 33.5344 -111.0892 82° East 458 527 27,200 1,440 Climbing Albuquerque Center
02:11PM 33.5514 -110.9308 83° East 476 548 28,700 1,320 Climbing Albuquerque Center
02:12PM 33.5942 -110.7747 72° East 490 564 30,000 1,200 Climbing Albuquerque Center
02:13PM 33.6456 -110.6181 68° East 502 578 31,300 1,620 Climbing Albuquerque Center
02:14PM 33.7069 -110.4250 69° East 514 592 33,400 1,620 Climbing Albuquerque Center
02:15PM 33.7514 -110.2881 69° East 512 589 34,700 1,380 Climbing Albuquerque Center
02:16PM 33.8119 -110.0981 69° East 511 588 36,300 1,080 Climbing Albuquerque Center
02:17PM 33.8625 -109.9383 69° East 513 590 37,000 300 Climbing Albuquerque Center
02:18PM 33.9133 -109.7797 69° East 512 589 37,000  Level Albuquerque Center
02:19PM 33.9636 -109.6208 69° East 511 588 37,000  Level Albuquerque Center
02:20PM 34.0131 -109.4611 69° East 511 588 37,000  Level Albuquerque Center
02:21PM 34.0622 -109.3025 69° East 509 586 37,000  Level Albuquerque Center
02:23PM 34.1192 -109.1142 70° East 504 580 37,000  Level Albuquerque Center
02:24PM 34.1689 -108.9553 69° East 506 582 37,000  Level Albuquerque Center
02:25PM 34.2178 -108.7983 69° East 505 581 37,000  Level Albuquerque Center
02:26PM 34.2664 -108.6406 70° East 503 579 37,000  Level Albuquerque Center
02:27PM 34.3194 -108.4678 70° East 507 583 37,000  Level Albuquerque Center
02:28PM 34.3642 -108.3069 71° East 506 582 37,100 600 Climbing Albuquerque Center
02:29PM 34.3836 -108.1331 82° East 519 597 38,300 900 Climbing Albuquerque Center
02:30PM 34.4072 -107.9614 80° East 518 596 39,000 300 Climbing Albuquerque Center
02:31PM 34.4308 -107.7914 80° East 514 592 39,000  Level Albuquerque Center
02:32PM 34.4572 -107.5875 81° East 514 592 39,000  Level Albuquerque Center
02:33PM 34.4800 -107.4183 81° East 512 589 39,000  Level Albuquerque Center
02:34PM 34.5006 -107.2508 81° East 509 586 39,000  Level Albuquerque Center
02:35PM 34.5228 -107.0828 81° East 508 585 39,000  Level Albuquerque Center
02:36PM 34.5436 -106.9147 81° East 509 586 39,000  Level Albuquerque Center
02:37PM 34.5639 -106.7456 82° East 510 587 39,000  Level Albuquerque Center
02:38PM 34.5883 -106.5444 82° East 507 583 39,000  Level Albuquerque Center
02:39PM 34.6086 -106.3764 82° East 509 586 39,000  Level Albuquerque Center
02:40PM 34.6311 -106.1897 82° East 507 583 39,000  Level Albuquerque Center
02:41PM 34.6531 -106.0192 81° East 508 585 39,000  Level Albuquerque Center
02:42PM 34.6722 -105.8478 82° East 508 585 39,000  Level Albuquerque Center
02:43PM 34.6908 -105.6758 82° East 509 586 39,000  Level Albuquerque Center
02:44PM 34.7131 -105.5031 81° East 511 588 39,000  Level Albuquerque Center
02:45PM 34.7331 -105.3319 82° East 511 588 39,000  Level Albuquerque Center
02:46PM 34.7522 -105.1603 82° East 509 586 39,000  Level Albuquerque Center
02:47PM 34.7719 -104.9878 82° East 509 586 39,000  Level Albuquerque Center
02:48PM 34.7931 -104.7878 83° East 507 583 39,000  Level Albuquerque Center
02:49PM 34.8119 -104.6175 82° East 506 582 39,000  Level Albuquerque Center
02:50PM 34.8300 -104.4483 83° East 503 579 39,000  Level Albuquerque Center
02:51PM 34.8475 -104.2794 83° East 503 579 39,000  Level Albuquerque Center
02:52PM 34.8650 -104.1106 83° East 504 580 39,000  Level Albuquerque Center
02:53PM 34.8828 -103.9422 83° East 503 579 39,000  Level Albuquerque Center
02:54PM 34.9003 -103.7731 83° East 503 579 39,000  Level Albuquerque Center
02:55PM 34.9203 -103.5736 83° East 506 582 39,000  Level Albuquerque Center
02:56PM 34.9367 -103.4031 83° East 506 582 39,000  Level Albuquerque Center
02:58PM 34.9528 -103.2306 83° East 508 585 39,000  Level Albuquerque Center
02:59PM 34.9703 -103.0603 83° East 505 581 39,000  Level Albuquerque Center
03:00PM 34.9850 -102.8894 84° East 504 580 39,000  Level Albuquerque Center
03:01PM 35.0019 -102.7189 83° East 503 579 39,000  Level Albuquerque Center
03:02PM 35.0153 -102.5458 85° East 499 574 39,000  Level Albuquerque Center
03:03PM 35.0314 -102.3781 83° East 499 574 39,000  Level Albuquerque Center
03:04PM 35.0453 -102.2122 84° East 496 571 39,000  Level Albuquerque Center
03:05PM 35.0628 -102.0133 84° East 495 570 39,000  Level Albuquerque Center
03:06PM 35.0797 -101.8481 83° East 498 573 39,000  Level Albuquerque Center
03:07PM 35.0925 -101.6797 85° East 495 570 39,000  Level Albuquerque Center
03:08PM 35.1069 -101.5078 84° East 497 572 39,000  Level Albuquerque Center
03:09PM 35.1206 -101.3422 84° East 492 566 39,000  Level Albuquerque Center
03:10PM 35.1347 -101.1583 85° East 496 571 39,000  Level Albuquerque Center
03:11PM 35.1475 -100.9933 85° East 491 565 39,000  Level Albuquerque Center
03:12PM 35.1603 -100.8278 85° East 491 565 39,000  Level Albuquerque Center
03:13PM 35.1714 -100.6619 85° East 491 565 39,000  Level Albuquerque Center
03:14PM 35.1842 -100.4764 85° East 490 564 39,000  Level Albuquerque Center
03:15PM 35.1978 -100.3106 84° East 491 565 39,000  Level Albuquerque Center
03:16PM 35.2100 -100.1461 85° East 488 562 39,000  Level Albuquerque Center
03:17PM 35.2206 -99.9806 85° East 488 562 39,000  Level Albuquerque Center
03:18PM 35.2319 -99.8167 85° East 486 559 39,000  Level Albuquerque Center
03:19PM 35.2425 -99.6508 85° East 488 562 39,000  Level Albuquerque Center
03:20PM 35.2533 -99.4847 85° East 489 563 39,000  Level Albuquerque Center
03:21PM 35.2658 -99.2853 86° East 492 566 39,000  Level Albuquerque Center
03:22PM 35.2675 -99.2442 87° East 489 563 39,000  Level Fort Worth Center
03:23PM 35.2783 -99.0792 85° East 489 563 39,000  Level Fort Worth Center
03:24PM 35.2867 -98.9114 86° East 489 563 39,000  Level Fort Worth Center
03:25PM 35.2969 -98.7464 86° East 489 563 39,000  Level Fort Worth Center
03:26PM 35.3069 -98.5811 86° East 489 563 39,000  Level Fort Worth Center
03:27PM 35.3167 -98.4006 86° East 480 552 39,000  Level Fort Worth Center
03:28PM 35.3264 -98.2328 86° East 480 552 39,000  Level Fort Worth Center
03:29PM 35.3356 -98.0675 86° East 480 552 39,000  Level Fort Worth Center
03:30PM 35.3447 -97.9047 86° East 480 552 39,000  Level Fort Worth Center
03:31PM 35.3517 -97.7394 87° East 480 552 39,000  Level Fort Worth Center
03:32PM 35.3519 -97.5764 90° East 480 552 39,000  Level Fort Worth Center
03:33PM 35.3458 -97.4136 93° East 500 575 39,000  Level Fort Worth Center
03:34PM 35.3247 -97.2508 99° East 500 575 39,000  Level Fort Worth Center
03:35PM 35.2972 -97.0856 101° East 500 575 39,000  Level Fort Worth Center
03:36PM 35.2614 -96.9281 106° East 488 562 39,000  Level Fort Worth Center
03:37PM 35.2272 -96.7706 105° East 483 556 39,000  Level Fort Worth Center
03:38PM 35.1931 -96.6133 105° East 483 556 39,000  Level Fort Worth Center
03:39PM 35.1564 -96.4536 106° East 477 549 39,000  Level Fort Worth Center
03:40PM 35.1197 -96.2942 106° East 477 549 39,000  Level Fort Worth Center
03:41PM 35.0828 -96.1375 106° East 472 543 39,000  Level Fort Worth Center
03:42PM 35.0456 -95.9731 105° East 478 550 39,000  Level Fort Worth Center
03:43PM 35.0103 -95.8164 105° East 478 550 39,000  Level Fort Worth Center
03:44PM 34.9728 -95.6575 106° East 478 550 39,000  Level Fort Worth Center
03:45PM 34.9122 -95.5094 116° Southeast 478 550 39,000  Level Fort Worth Center
03:46PM 34.8514 -95.3614 117° Southeast 483 556 39,000 -240 Level Fort Worth Center
03:48PM 34.7114 -95.0283 117° Southeast 480 552 38,300 -540 Descending Memphis Center
03:49PM 34.6519 -94.8861 117° Southeast 480 552 37,400 -960 Descending Memphis Center
03:50PM 34.5967 -94.7394 115° Southeast 480 552 36,400 -960 Descending Memphis Center
03:51PM 34.5347 -94.5975 118° Southeast 480 552 35,500 -720 Descending Memphis Center
03:52PM 34.4939 -94.4469 108° East 475 547 35,000 -300 Descending Memphis Center
03:53PM 34.4719 -94.2872 99° East 475 547 35,000 -420 Level Memphis Center
03:54PM 34.4747 -94.1261 89° East 475 547 34,200 -1,200 Descending Memphis Center
03:55PM 34.4942 -93.9631 82° East 469 540 32,600 -2,520 Descending Memphis Center
03:56PM 34.5114 -93.7975 83° East 482 555 29,200 -3,300 Descending Memphis Center
03:57PM 34.5325 -93.6344 81° East 487 560 26,000 -3,240 Descending Memphis Center
03:58PM 34.5492 -93.4714 83° East 487 560 22,800 -3,240 Descending Memphis Center
03:59PM 34.5656 -93.3131 83° East 482 555 19,600 -3,120 Descending Memphis Center
04:00PM 34.5797 -93.1544 84° East 452 520 16,600 -2,820 Descending Memphis Center
04:01PM 34.5953 -93.0164 82° East 447 514 14,000 -2,880 Descending Memphis Center
04:02PM 34.6108 -92.8653 83° East 418 481 10,900 -2,040 Descending Memphis Center
04:03PM 34.6364 -92.7400 76° East 396 456 10,000 -1,020 Descending Memphis Center
04:04PM 34.6633 -92.6372 72° East 352 405 8,900 -1,320 Descending Memphis Center
04:05PM 34.6900 -92.5369 72° East 328 377 7,400 -1,440 Descending Memphis Center
04:05PM 34.6947 -92.5117 77° East 310 357 7,100 -1,500 Descending Memphis Center
04:06PM 34.7189 -92.4392 68° East 310 357 5,900 -1,380 Descending Memphis Center
04:06PM 34.7233 -92.4214 73° East 306 352 5,700 -1,020 Descending Memphis Center
04:07PM 34.7494 -92.3514 66° East 295 339 4,900 -960 Descending Memphis Center
04:07PM 34.7561 -92.3261 72° East 249 287 4,700 -720 Descending Memphis Center
04:08PM 34.7778 -92.2836 58° Northeast 259 298 4,200 -1,020 Descending Memphis Center
04:08PM 34.7925 -92.2664 44° Northeast 166 191 3,600 -1,500 Descending Memphis Center
04:09PM 34.8014 -92.2361 70° East 202 232 2,700 -1,560 Descending Memphis Center
04:09PM 34.7953 -92.2183 113° Southeast 160 184 2,200 -1,440 Descending Memphis Center
04:10PM 34.7747 -92.1978 141° Southeast 125 144 1,300 -1,200 Descending Memphis Center
04:10PM 34.7558 -92.2025 192° South 144 166 1,000 -300 Descending Memphis Center
04:11PM 34.7669 -92.1647 70° East 118 136 1,000 5,580 Level Memphis Center
04:12PM 34.7569 -92.1267 108° East 118 136 10,000 4,500 Climbing Memphis Center
04:13PM 34.7472 -92.0883 107° East 118 136 10,000  Level Memphis Center
04:14PM 34.7372 -92.0503 108° East 118 136 10,000  Level Memphis Center
04:16PM 34.7167 -92.2167 261° West  Level FlightAware Approximate
04:23PM 34.7294 -92.2248 261° West  Level Estimated
04:24PM 34.7294 -92.2248 261° West  Level Estimated